sensor_id;sensor_type;location;lat;lon;timestamp;P1;durP1;ratioP1;P2;durP2;ratioP2
6825;SDS011;3451;52.476;13.316;2023-03-24T00:01:53;3.90;;;2.70;;
6825;SDS011;3451;52.476;13.316;2023-03-24T00:04:20;4.10;;;2.50;;
6825;SDS011;3451;52.476;13.316;2023-03-24T00:06:46;3.17;;;2.80;;
6825;SDS011;3451;52.476;13.316;2023-03-24T00:09:14;3.63;;;2.60;;
6825;SDS011;3451;52.476;13.316;2023-03-24T00:11:41;4.03;;;2.63;;
6825;SDS011;3451;52.476;13.316;2023-03-24T00:14:08;5.30;;;2.50;;
6825;SDS011;3451;52.476;13.316;2023-03-24T00:16:38;5.30;;;2.33;;
6825;SDS011;3451;52.476;13.316;2023-03-24T00:19:08;4.83;;;2.60;;
6825;SDS011;3451;52.476;13.316;2023-03-24T00:21:35;5.83;;;2.87;;
6825;SDS011;3451;52.476;13.316;2023-03-24T00:24:02;3.67;;;2.33;;
6825;SDS011;3451;52.476;13.316;2023-03-24T00:26:30;3.20;;;2.53;;
6825;SDS011;3451;52.476;13.316;2023-03-24T00:28:57;3.30;;;2.40;;
6825;SDS011;3451;52.476;13.316;2023-03-24T00:31:23;4.03;;;2.47;;
6825;SDS011;3451;52.476;13.316;2023-03-24T00:33:50;3.30;;;2.50;;
6825;SDS011;3451;52.476;13.316;2023-03-24T00:36:17;4.57;;;2.67;;
6825;SDS011;3451;52.476;13.316;2023-03-24T00:38:45;3.57;;;2.50;;
6825;SDS011;3451;52.476;13.316;2023-03-24T00:41:13;3.63;;;2.80;;
6825;SDS011;3451;52.476;13.316;2023-03-24T00:43:42;4.50;;;2.40;;
6825;SDS011;3451;52.476;13.316;2023-03-24T00:46:10;3.50;;;2.53;;
6825;SDS011;3451;52.476;13.316;2023-03-24T00:48:36;3.60;;;2.40;;
6825;SDS011;3451;52.476;13.316;2023-03-24T00:51:04;2.50;;;2.20;;
6825;SDS011;3451;52.476;13.316;2023-03-24T00:53:33;5.63;;;2.30;;
6825;SDS011;3451;52.476;13.316;2023-03-24T00:56:00;3.80;;;2.13;;
6825;SDS011;3451;52.476;13.316;2023-03-24T00:58:26;2.40;;;2.00;;
6825;SDS011;3451;52.476;13.316;2023-03-24T01:00:55;4.87;;;2.10;;
6825;SDS011;3451;52.476;13.316;2023-03-24T01:03:22;3.53;;;2.50;;
6825;SDS011;3451;52.476;13.316;2023-03-24T01:05:53;3.40;;;2.20;;
6825;SDS011;3451;52.476;13.316;2023-03-24T01:08:23;2.80;;;2.47;;
6825;SDS011;3451;52.476;13.316;2023-03-24T01:10:51;3.43;;;2.00;;
6825;SDS011;3451;52.476;13.316;2023-03-24T01:13:21;3.43;;;2.20;;
6825;SDS011;3451;52.476;13.316;2023-03-24T01:15:47;3.23;;;2.30;;
6825;SDS011;3451;52.476;13.316;2023-03-24T01:18:14;2.77;;;1.97;;
6825;SDS011;3451;52.476;13.316;2023-03-24T01:20:41;3.30;;;2.27;;
6825;SDS011;3451;52.476;13.316;2023-03-24T01:23:12;2.43;;;2.20;;
6825;SDS011;3451;52.476;13.316;2023-03-24T01:25:39;2.83;;;2.20;;
6825;SDS011;3451;52.476;13.316;2023-03-24T01:28:07;2.40;;;2.20;;
6825;SDS011;3451;52.476;13.316;2023-03-24T01:30:33;4.50;;;2.20;;
6825;SDS011;3451;52.476;13.316;2023-03-24T01:33:00;3.83;;;2.30;;
6825;SDS011;3451;52.476;13.316;2023-03-24T01:35:26;3.77;;;2.13;;
6825;SDS011;3451;52.476;13.316;2023-03-24T01:37:54;2.93;;;2.30;;
6825;SDS011;3451;52.476;13.316;2023-03-24T01:40:22;2.93;;;2.43;;
6825;SDS011;3451;52.476;13.316;2023-03-24T01:42:49;2.80;;;2.10;;
6825;SDS011;3451;52.476;13.316;2023-03-24T01:53:35;3.10;;;2.50;;
6825;SDS011;3451;52.476;13.316;2023-03-24T01:56:02;2.90;;;2.27;;
6825;SDS011;3451;52.476;13.316;2023-03-24T01:58:31;3.23;;;2.30;;
6825;SDS011;3451;52.476;13.316;2023-03-24T02:00:58;3.43;;;2.47;;
6825;SDS011;3451;52.476;13.316;2023-03-24T02:03:24;3.20;;;2.50;;
6825;SDS011;3451;52.476;13.316;2023-03-24T02:05:52;3.87;;;2.13;;
6825;SDS011;3451;52.476;13.316;2023-03-24T02:08:21;5.07;;;2.40;;
6825;SDS011;3451;52.476;13.316;2023-03-24T02:10:48;4.83;;;2.50;;
6825;SDS011;3451;52.476;13.316;2023-03-24T02:13:17;3.77;;;2.70;;
6825;SDS011;3451;52.476;13.316;2023-03-24T02:15:51;4.63;;;2.70;;
6825;SDS011;3451;52.476;13.316;2023-03-24T02:21:34;4.30;;;2.53;;
6825;SDS011;3451;52.476;13.316;2023-03-24T02:24:10;4.57;;;2.57;;
6825;SDS011;3451;52.476;13.316;2023-03-24T02:26:47;2.40;;;1.90;;
6825;SDS011;3451;52.476;13.316;2023-03-24T02:29:31;4.03;;;2.20;;
6825;SDS011;3451;52.476;13.316;2023-03-24T02:32:15;5.10;;;2.53;;
6825;SDS011;3451;52.476;13.316;2023-03-24T02:40:06;4.67;;;2.40;;
6825;SDS011;3451;52.476;13.316;2023-03-24T02:42:50;2.70;;;2.10;;
6825;SDS011;3451;52.476;13.316;2023-03-24T02:48:12;3.53;;;2.40;;
6825;SDS011;3451;52.476;13.316;2023-03-24T02:56:15;3.13;;;2.40;;
6825;SDS011;3451;52.476;13.316;2023-03-24T02:58:47;3.63;;;2.20;;
6825;SDS011;3451;52.476;13.316;2023-03-24T03:01:18;2.90;;;2.17;;
6825;SDS011;3451;52.476;13.316;2023-03-24T03:03:49;3.17;;;2.37;;
6825;SDS011;3451;52.476;13.316;2023-03-24T03:06:21;3.00;;;2.40;;
6825;SDS011;3451;52.476;13.316;2023-03-24T03:08:49;3.97;;;2.30;;
6825;SDS011;3451;52.476;13.316;2023-03-24T03:11:16;5.13;;;2.20;;
6825;SDS011;3451;52.476;13.316;2023-03-24T03:13:43;3.33;;;2.50;;
6825;SDS011;3451;52.476;13.316;2023-03-24T03:16:13;3.87;;;2.53;;
6825;SDS011;3451;52.476;13.316;2023-03-24T03:18:46;2.93;;;2.43;;
6825;SDS011;3451;52.476;13.316;2023-03-24T03:21:15;3.33;;;2.40;;
6825;SDS011;3451;52.476;13.316;2023-03-24T03:23:48;3.13;;;2.23;;
6825;SDS011;3451;52.476;13.316;2023-03-24T03:26:17;3.10;;;2.20;;
6825;SDS011;3451;52.476;13.316;2023-03-24T03:28:45;3.43;;;2.57;;
6825;SDS011;3451;52.476;13.316;2023-03-24T03:31:17;5.00;;;2.40;;
6825;SDS011;3451;52.476;13.316;2023-03-24T03:36:36;2.27;;;2.07;;
6825;SDS011;3451;52.476;13.316;2023-03-24T03:41:49;2.97;;;2.23;;
6825;SDS011;3451;52.476;13.316;2023-03-24T03:44:15;6.13;;;2.57;;
6825;SDS011;3451;52.476;13.316;2023-03-24T03:46:42;4.27;;;2.40;;
6825;SDS011;3451;52.476;13.316;2023-03-24T03:49:08;3.83;;;2.23;;
6825;SDS011;3451;52.476;13.316;2023-03-24T03:51:35;4.00;;;2.40;;
6825;SDS011;3451;52.476;13.316;2023-03-24T03:54:02;3.60;;;2.50;;
6825;SDS011;3451;52.476;13.316;2023-03-24T03:56:31;3.00;;;2.30;;
6825;SDS011;3451;52.476;13.316;2023-03-24T03:58:58;3.63;;;2.80;;
6825;SDS011;3451;52.476;13.316;2023-03-24T04:01:25;3.00;;;2.50;;
6825;SDS011;3451;52.476;13.316;2023-03-24T04:07:23;5.23;;;2.87;;
6825;SDS011;3451;52.476;13.316;2023-03-24T04:11:59;5.13;;;2.83;;
6825;SDS011;3451;52.476;13.316;2023-03-24T04:19:43;4.10;;;2.80;;
6825;SDS011;3451;52.476;13.316;2023-03-24T04:22:16;5.23;;;3.30;;
6825;SDS011;3451;52.476;13.316;2023-03-24T04:32:49;3.60;;;2.97;;
6825;SDS011;3451;52.476;13.316;2023-03-24T04:35:39;4.87;;;3.40;;
6825;SDS011;3451;52.476;13.316;2023-03-24T04:38:07;4.33;;;3.23;;
6825;SDS011;3451;52.476;13.316;2023-03-24T04:40:34;6.17;;;3.50;;
6825;SDS011;3451;52.476;13.316;2023-03-24T04:43:02;5.33;;;3.57;;
6825;SDS011;3451;52.476;13.316;2023-03-24T04:45:32;4.20;;;3.30;;
6825;SDS011;3451;52.476;13.316;2023-03-24T04:48:03;6.87;;;3.47;;
6825;SDS011;3451;52.476;13.316;2023-03-24T04:50:36;5.13;;;3.50;;
6825;SDS011;3451;52.476;13.316;2023-03-24T04:53:04;4.93;;;3.57;;
6825;SDS011;3451;52.476;13.316;2023-03-24T04:58:03;4.10;;;3.57;;
6825;SDS011;3451;52.476;13.316;2023-03-24T05:00:29;5.10;;;3.47;;
6825;SDS011;3451;52.476;13.316;2023-03-24T05:02:57;4.87;;;3.53;;
6825;SDS011;3451;52.476;13.316;2023-03-24T05:05:23;6.13;;;3.70;;
6825;SDS011;3451;52.476;13.316;2023-03-24T05:07:49;5.17;;;3.87;;
6825;SDS011;3451;52.476;13.316;2023-03-24T05:10:15;5.50;;;3.63;;
6825;SDS011;3451;52.476;13.316;2023-03-24T05:12:45;4.23;;;3.53;;
6825;SDS011;3451;52.476;13.316;2023-03-24T05:15:12;7.67;;;4.13;;
6825;SDS011;3451;52.476;13.316;2023-03-24T05:17:38;5.80;;;3.63;;
6825;SDS011;3451;52.476;13.316;2023-03-24T05:20:05;3.77;;;3.37;;
6825;SDS011;3451;52.476;13.316;2023-03-24T05:22:36;5.23;;;3.90;;
6825;SDS011;3451;52.476;13.316;2023-03-24T05:25:03;4.87;;;3.67;;
6825;SDS011;3451;52.476;13.316;2023-03-24T05:27:29;6.40;;;3.47;;
6825;SDS011;3451;52.476;13.316;2023-03-24T05:29:55;4.67;;;3.50;;
6825;SDS011;3451;52.476;13.316;2023-03-24T05:32:21;4.10;;;3.60;;
6825;SDS011;3451;52.476;13.316;2023-03-24T05:34:48;4.50;;;3.87;;
6825;SDS011;3451;52.476;13.316;2023-03-24T05:37:14;6.10;;;3.77;;
6825;SDS011;3451;52.476;13.316;2023-03-24T05:39:42;5.60;;;3.80;;
6825;SDS011;3451;52.476;13.316;2023-03-24T05:42:09;6.40;;;3.80;;
6825;SDS011;3451;52.476;13.316;2023-03-24T05:44:35;6.73;;;3.50;;
6825;SDS011;3451;52.476;13.316;2023-03-24T05:47:02;4.90;;;3.77;;
6825;SDS011;3451;52.476;13.316;2023-03-24T05:49:28;6.03;;;4.27;;
6825;SDS011;3451;52.476;13.316;2023-03-24T05:51:54;5.57;;;3.90;;
6825;SDS011;3451;52.476;13.316;2023-03-24T05:54:21;7.40;;;4.20;;
6825;SDS011;3451;52.476;13.316;2023-03-24T05:56:47;4.87;;;3.40;;
6825;SDS011;3451;52.476;13.316;2023-03-24T05:59:14;7.20;;;4.13;;
6825;SDS011;3451;52.476;13.316;2023-03-24T06:01:40;4.47;;;3.50;;
6825;SDS011;3451;52.476;13.316;2023-03-24T06:04:07;4.77;;;3.53;;
6825;SDS011;3451;52.476;13.316;2023-03-24T06:06:34;6.63;;;3.30;;
6825;SDS011;3451;52.476;13.316;2023-03-24T06:09:00;4.33;;;3.30;;
6825;SDS011;3451;52.476;13.316;2023-03-24T06:11:30;4.67;;;3.37;;
6825;SDS011;3451;52.476;13.316;2023-03-24T06:13:56;5.17;;;3.70;;
6825;SDS011;3451;52.476;13.316;2023-03-24T06:16:27;4.63;;;3.43;;
6825;SDS011;3451;52.476;13.316;2023-03-24T06:18:54;5.57;;;3.60;;
6825;SDS011;3451;52.476;13.316;2023-03-24T06:21:20;5.33;;;3.27;;
6825;SDS011;3451;52.476;13.316;2023-03-24T06:23:47;5.70;;;3.77;;
6825;SDS011;3451;52.476;13.316;2023-03-24T06:26:13;6.37;;;3.50;;
6825;SDS011;3451;52.476;13.316;2023-03-24T06:28:40;5.03;;;3.47;;
6825;SDS011;3451;52.476;13.316;2023-03-24T06:31:07;4.17;;;3.43;;
6825;SDS011;3451;52.476;13.316;2023-03-24T06:33:40;4.27;;;3.43;;
6825;SDS011;3451;52.476;13.316;2023-03-24T06:36:08;6.93;;;3.43;;
6825;SDS011;3451;52.476;13.316;2023-03-24T06:38:34;4.37;;;3.20;;
6825;SDS011;3451;52.476;13.316;2023-03-24T06:41:01;4.47;;;3.07;;
6825;SDS011;3451;52.476;13.316;2023-03-24T06:43:27;4.23;;;3.10;;
6825;SDS011;3451;52.476;13.316;2023-03-24T06:45:54;5.37;;;3.20;;
6825;SDS011;3451;52.476;13.316;2023-03-24T06:48:20;6.00;;;3.53;;
6825;SDS011;3451;52.476;13.316;2023-03-24T06:50:47;3.50;;;3.20;;
6825;SDS011;3451;52.476;13.316;2023-03-24T06:53:13;5.10;;;3.57;;
6825;SDS011;3451;52.476;13.316;2023-03-24T06:55:39;5.83;;;3.20;;
6825;SDS011;3451;52.476;13.316;2023-03-24T06:58:06;5.40;;;3.47;;
6825;SDS011;3451;52.476;13.316;2023-03-24T07:00:32;3.60;;;3.10;;
6825;SDS011;3451;52.476;13.316;2023-03-24T07:02:59;5.17;;;3.57;;
6825;SDS011;3451;52.476;13.316;2023-03-24T07:05:27;4.63;;;3.63;;
6825;SDS011;3451;52.476;13.316;2023-03-24T07:07:54;4.13;;;3.33;;
6825;SDS011;3451;52.476;13.316;2023-03-24T07:10:24;5.10;;;3.63;;
6825;SDS011;3451;52.476;13.316;2023-03-24T07:12:50;4.70;;;3.20;;
6825;SDS011;3451;52.476;13.316;2023-03-24T07:15:16;3.90;;;3.03;;
6825;SDS011;3451;52.476;13.316;2023-03-24T07:17:43;3.60;;;3.10;;
6825;SDS011;3451;52.476;13.316;2023-03-24T07:20:09;4.00;;;3.30;;
6825;SDS011;3451;52.476;13.316;2023-03-24T07:22:35;4.60;;;2.93;;
6825;SDS011;3451;52.476;13.316;2023-03-24T07:25:02;5.87;;;3.37;;
6825;SDS011;3451;52.476;13.316;2023-03-24T07:27:30;6.00;;;3.27;;
6825;SDS011;3451;52.476;13.316;2023-03-24T07:29:58;12.43;;;4.13;;
6825;SDS011;3451;52.476;13.316;2023-03-24T07:32:25;5.27;;;3.30;;
6825;SDS011;3451;52.476;13.316;2023-03-24T07:34:51;5.43;;;3.40;;
6825;SDS011;3451;52.476;13.316;2023-03-24T07:37:18;4.53;;;2.87;;
6825;SDS011;3451;52.476;13.316;2023-03-24T07:39:44;5.63;;;2.90;;
6825;SDS011;3451;52.476;13.316;2023-03-24T07:42:10;4.73;;;3.10;;
6825;SDS011;3451;52.476;13.316;2023-03-24T07:44:38;4.37;;;3.20;;
6825;SDS011;3451;52.476;13.316;2023-03-24T07:47:04;5.00;;;3.40;;
6825;SDS011;3451;52.476;13.316;2023-03-24T07:49:31;4.57;;;3.43;;
6825;SDS011;3451;52.476;13.316;2023-03-24T07:51:57;5.30;;;3.00;;
6825;SDS011;3451;52.476;13.316;2023-03-24T07:54:24;5.63;;;3.30;;
6825;SDS011;3451;52.476;13.316;2023-03-24T07:56:51;6.97;;;3.60;;
6825;SDS011;3451;52.476;13.316;2023-03-24T07:59:18;4.07;;;2.97;;
6825;SDS011;3451;52.476;13.316;2023-03-24T08:01:44;4.50;;;3.27;;
6825;SDS011;3451;52.476;13.316;2023-03-24T08:04:13;7.57;;;3.40;;
6825;SDS011;3451;52.476;13.316;2023-03-24T08:06:41;5.10;;;3.50;;
6825;SDS011;3451;52.476;13.316;2023-03-24T08:09:08;6.03;;;3.50;;
6825;SDS011;3451;52.476;13.316;2023-03-24T08:11:36;6.87;;;3.53;;
6825;SDS011;3451;52.476;13.316;2023-03-24T08:14:03;5.17;;;3.10;;
6825;SDS011;3451;52.476;13.316;2023-03-24T08:16:29;4.13;;;3.47;;
6825;SDS011;3451;52.476;13.316;2023-03-24T08:18:55;4.57;;;3.30;;
6825;SDS011;3451;52.476;13.316;2023-03-24T08:21:25;4.50;;;3.60;;
6825;SDS011;3451;52.476;13.316;2023-03-24T08:23:51;4.27;;;3.20;;
6825;SDS011;3451;52.476;13.316;2023-03-24T08:26:18;4.33;;;3.70;;
6825;SDS011;3451;52.476;13.316;2023-03-24T08:28:44;5.20;;;3.37;;
6825;SDS011;3451;52.476;13.316;2023-03-24T08:31:10;5.87;;;3.80;;
6825;SDS011;3451;52.476;13.316;2023-03-24T08:33:37;5.73;;;3.90;;
6825;SDS011;3451;52.476;13.316;2023-03-24T08:36:03;3.83;;;3.07;;
6825;SDS011;3451;52.476;13.316;2023-03-24T08:38:29;4.67;;;3.33;;
6825;SDS011;3451;52.476;13.316;2023-03-24T08:40:57;4.67;;;3.60;;
6825;SDS011;3451;52.476;13.316;2023-03-24T08:43:24;4.60;;;3.30;;
6825;SDS011;3451;52.476;13.316;2023-03-24T08:45:50;5.30;;;3.53;;
6825;SDS011;3451;52.476;13.316;2023-03-24T08:48:17;4.90;;;3.67;;
6825;SDS011;3451;52.476;13.316;2023-03-24T08:50:43;4.83;;;3.50;;
6825;SDS011;3451;52.476;13.316;2023-03-24T08:53:09;4.97;;;3.40;;
6825;SDS011;3451;52.476;13.316;2023-03-24T08:55:39;4.90;;;3.50;;
6825;SDS011;3451;52.476;13.316;2023-03-24T08:58:11;4.53;;;3.40;;
6825;SDS011;3451;52.476;13.316;2023-03-24T09:00:38;7.00;;;3.93;;
6825;SDS011;3451;52.476;13.316;2023-03-24T09:03:05;5.63;;;3.50;;
6825;SDS011;3451;52.476;13.316;2023-03-24T09:05:31;7.90;;;3.97;;
6825;SDS011;3451;52.476;13.316;2023-03-24T09:08:10;9.13;;;3.87;;
6825;SDS011;3451;52.476;13.316;2023-03-24T09:10:37;6.00;;;3.63;;
6825;SDS011;3451;52.476;13.316;2023-03-24T09:13:04;8.70;;;3.80;;
6825;SDS011;3451;52.476;13.316;2023-03-24T09:15:30;10.97;;;3.93;;
6825;SDS011;3451;52.476;13.316;2023-03-24T09:17:57;6.57;;;3.77;;
6825;SDS011;3451;52.476;13.316;2023-03-24T09:20:23;4.70;;;3.40;;
6825;SDS011;3451;52.476;13.316;2023-03-24T09:22:50;4.37;;;3.53;;
6825;SDS011;3451;52.476;13.316;2023-03-24T09:25:17;4.80;;;3.57;;
6825;SDS011;3451;52.476;13.316;2023-03-24T09:27:44;5.63;;;3.53;;
6825;SDS011;3451;52.476;13.316;2023-03-24T09:30:11;3.83;;;3.30;;
6825;SDS011;3451;52.476;13.316;2023-03-24T09:32:38;5.73;;;3.43;;
6825;SDS011;3451;52.476;13.316;2023-03-24T09:35:05;7.20;;;3.97;;
6825;SDS011;3451;52.476;13.316;2023-03-24T09:37:33;5.87;;;3.60;;
6825;SDS011;3451;52.476;13.316;2023-03-24T09:40:00;6.13;;;4.10;;
6825;SDS011;3451;52.476;13.316;2023-03-24T09:42:27;4.87;;;3.20;;
6825;SDS011;3451;52.476;13.316;2023-03-24T09:44:59;7.67;;;3.40;;
6825;SDS011;3451;52.476;13.316;2023-03-24T09:47:37;4.57;;;3.23;;
6825;SDS011;3451;52.476;13.316;2023-03-24T09:50:15;6.93;;;3.37;;
6825;SDS011;3451;52.476;13.316;2023-03-24T09:52:43;6.37;;;3.60;;
6825;SDS011;3451;52.476;13.316;2023-03-24T09:55:10;8.20;;;3.57;;
6825;SDS011;3451;52.476;13.316;2023-03-24T09:57:40;4.43;;;3.50;;
6825;SDS011;3451;52.476;13.316;2023-03-24T10:02:35;3.77;;;3.20;;
6825;SDS011;3451;52.476;13.316;2023-03-24T10:05:05;5.27;;;3.53;;
6825;SDS011;3451;52.476;13.316;2023-03-24T10:07:38;6.10;;;2.90;;
6825;SDS011;3451;52.476;13.316;2023-03-24T10:10:08;5.50;;;2.90;;
6825;SDS011;3451;52.476;13.316;2023-03-24T10:12:43;4.20;;;2.60;;
6825;SDS011;3451;52.476;13.316;2023-03-24T10:15:15;3.93;;;2.13;;
6825;SDS011;3451;52.476;13.316;2023-03-24T10:17:57;3.37;;;2.00;;
6825;SDS011;3451;52.476;13.316;2023-03-24T10:20:27;5.60;;;2.10;;
6825;SDS011;3451;52.476;13.316;2023-03-24T10:22:58;3.03;;;2.13;;
6825;SDS011;3451;52.476;13.316;2023-03-24T10:25:38;3.97;;;2.47;;
6825;SDS011;3451;52.476;13.316;2023-03-24T10:30:38;3.63;;;2.60;;
6825;SDS011;3451;52.476;13.316;2023-03-24T10:33:11;4.17;;;2.90;;
6825;SDS011;3451;52.476;13.316;2023-03-24T10:35:40;4.73;;;2.93;;
6825;SDS011;3451;52.476;13.316;2023-03-24T10:38:26;4.17;;;3.03;;
6825;SDS011;3451;52.476;13.316;2023-03-24T10:40:53;3.37;;;2.50;;
6825;SDS011;3451;52.476;13.316;2023-03-24T10:43:19;4.17;;;3.10;;
6825;SDS011;3451;52.476;13.316;2023-03-24T10:45:47;4.27;;;2.70;;
6825;SDS011;3451;52.476;13.316;2023-03-24T10:48:32;4.80;;;2.60;;
6825;SDS011;3451;52.476;13.316;2023-03-24T10:50:59;4.87;;;2.40;;
6825;SDS011;3451;52.476;13.316;2023-03-24T10:53:25;5.53;;;3.10;;
6825;SDS011;3451;52.476;13.316;2023-03-24T10:55:52;3.87;;;2.30;;
6825;SDS011;3451;52.476;13.316;2023-03-24T11:00:45;3.13;;;2.37;;
6825;SDS011;3451;52.476;13.316;2023-03-24T11:03:13;2.37;;;2.10;;
6825;SDS011;3451;52.476;13.316;2023-03-24T11:05:41;3.20;;;2.20;;
6825;SDS011;3451;52.476;13.316;2023-03-24T11:10:54;4.70;;;2.30;;
6825;SDS011;3451;52.476;13.316;2023-03-24T11:13:30;4.40;;;2.30;;
6825;SDS011;3451;52.476;13.316;2023-03-24T11:18:23;2.97;;;2.10;;
6825;SDS011;3451;52.476;13.316;2023-03-24T11:20:55;3.17;;;2.53;;
6825;SDS011;3451;52.476;13.316;2023-03-24T11:23:26;3.30;;;2.00;;
6825;SDS011;3451;52.476;13.316;2023-03-24T11:26:01;3.53;;;2.20;;
6825;SDS011;3451;52.476;13.316;2023-03-24T11:28:29;4.80;;;2.17;;
6825;SDS011;3451;52.476;13.316;2023-03-24T11:31:00;2.60;;;2.27;;
6825;SDS011;3451;52.476;13.316;2023-03-24T11:33:32;3.60;;;2.67;;
6825;SDS011;3451;52.476;13.316;2023-03-24T11:36:07;3.23;;;2.47;;
6825;SDS011;3451;52.476;13.316;2023-03-24T11:38:39;2.63;;;2.00;;
6825;SDS011;3451;52.476;13.316;2023-03-24T11:41:08;3.30;;;2.10;;
6825;SDS011;3451;52.476;13.316;2023-03-24T11:43:40;2.70;;;1.90;;
6825;SDS011;3451;52.476;13.316;2023-03-24T11:46:16;4.10;;;2.07;;
6825;SDS011;3451;52.476;13.316;2023-03-24T11:48:46;2.20;;;2.00;;
6825;SDS011;3451;52.476;13.316;2023-03-24T11:51:32;4.03;;;2.10;;
6825;SDS011;3451;52.476;13.316;2023-03-24T11:53:59;3.47;;;2.20;;
6825;SDS011;3451;52.476;13.316;2023-03-24T11:56:30;3.43;;;2.17;;
6825;SDS011;3451;52.476;13.316;2023-03-24T11:59:22;4.03;;;2.47;;
6825;SDS011;3451;52.476;13.316;2023-03-24T12:02:39;3.70;;;2.10;;
6825;SDS011;3451;52.476;13.316;2023-03-24T12:07:37;3.83;;;2.00;;
6825;SDS011;3451;52.476;13.316;2023-03-24T12:10:27;3.63;;;2.10;;
6825;SDS011;3451;52.476;13.316;2023-03-24T12:13:06;3.93;;;2.63;;
6825;SDS011;3451;52.476;13.316;2023-03-24T12:21:12;3.43;;;2.23;;
6825;SDS011;3451;52.476;13.316;2023-03-24T12:26:22;2.20;;;2.00;;
6825;SDS011;3451;52.476;13.316;2023-03-24T12:28:54;3.17;;;2.10;;
6825;SDS011;3451;52.476;13.316;2023-03-24T12:34:13;5.20;;;2.27;;
6825;SDS011;3451;52.476;13.316;2023-03-24T12:36:56;7.00;;;2.40;;
6825;SDS011;3451;52.476;13.316;2023-03-24T12:42:08;2.87;;;2.10;;
6825;SDS011;3451;52.476;13.316;2023-03-24T12:44:41;3.87;;;2.23;;
6825;SDS011;3451;52.476;13.316;2023-03-24T12:50:01;3.27;;;2.27;;
6825;SDS011;3451;52.476;13.316;2023-03-24T12:52:35;3.27;;;2.20;;
6825;SDS011;3451;52.476;13.316;2023-03-24T12:57:36;2.90;;;2.03;;
6825;SDS011;3451;52.476;13.316;2023-03-24T13:00:04;3.33;;;2.20;;
6825;SDS011;3451;52.476;13.316;2023-03-24T13:02:58;3.80;;;2.20;;
6825;SDS011;3451;52.476;13.316;2023-03-24T13:05:25;3.40;;;2.33;;
6825;SDS011;3451;52.476;13.316;2023-03-24T13:07:54;2.63;;;2.00;;
6825;SDS011;3451;52.476;13.316;2023-03-24T13:10:25;3.20;;;2.30;;
6825;SDS011;3451;52.476;13.316;2023-03-24T13:16:10;3.73;;;2.17;;
6825;SDS011;3451;52.476;13.316;2023-03-24T13:18:30;6.63;;;2.00;;
6825;SDS011;3451;52.476;13.316;2023-03-24T13:20:59;4.03;;;1.90;;
6825;SDS011;3451;52.476;13.316;2023-03-24T13:31:41;2.93;;;2.03;;
6825;SDS011;3451;52.476;13.316;2023-03-24T13:34:20;4.50;;;2.40;;
6825;SDS011;3451;52.476;13.316;2023-03-24T13:36:48;3.30;;;1.90;;
6825;SDS011;3451;52.476;13.316;2023-03-24T13:39:19;3.20;;;1.80;;
6825;SDS011;3451;52.476;13.316;2023-03-24T13:41:50;4.03;;;2.10;;
6825;SDS011;3451;52.476;13.316;2023-03-24T13:44:18;3.23;;;2.07;;
6825;SDS011;3451;52.476;13.316;2023-03-24T13:46:58;3.20;;;1.97;;
6825;SDS011;3451;52.476;13.316;2023-03-24T13:49:25;4.13;;;1.90;;
6825;SDS011;3451;52.476;13.316;2023-03-24T13:51:52;2.93;;;1.70;;
6825;SDS011;3451;52.476;13.316;2023-03-24T13:54:19;2.17;;;1.70;;
6825;SDS011;3451;52.476;13.316;2023-03-24T13:56:48;3.07;;;1.60;;
6825;SDS011;3451;52.476;13.316;2023-03-24T13:59:31;3.47;;;1.67;;
6825;SDS011;3451;52.476;13.316;2023-03-24T14:04:45;2.50;;;1.60;;
6825;SDS011;3451;52.476;13.316;2023-03-24T14:07:28;4.33;;;1.60;;
6825;SDS011;3451;52.476;13.316;2023-03-24T14:10:00;3.63;;;1.60;;
6825;SDS011;3451;52.476;13.316;2023-03-24T14:12:27;3.27;;;1.60;;
6825;SDS011;3451;52.476;13.316;2023-03-24T14:15:01;3.03;;;1.83;;
6825;SDS011;3451;52.476;13.316;2023-03-24T14:17:28;2.53;;;1.70;;
6825;SDS011;3451;52.476;13.316;2023-03-24T14:22:25;3.20;;;1.90;;
6825;SDS011;3451;52.476;13.316;2023-03-24T14:25:00;3.57;;;1.50;;
6825;SDS011;3451;52.476;13.316;2023-03-24T14:27:30;2.50;;;1.70;;
6825;SDS011;3451;52.476;13.316;2023-03-24T14:30:39;7.13;;;1.70;;
6825;SDS011;3451;52.476;13.316;2023-03-24T14:32:51;2.90;;;1.70;;
6825;SDS011;3451;52.476;13.316;2023-03-24T14:35:25;3.43;;;1.57;;
6825;SDS011;3451;52.476;13.316;2023-03-24T14:37:55;3.20;;;1.53;;
6825;SDS011;3451;52.476;13.316;2023-03-24T14:40:32;2.40;;;1.73;;
6825;SDS011;3451;52.476;13.316;2023-03-24T14:43:14;3.10;;;1.37;;
6825;SDS011;3451;52.476;13.316;2023-03-24T14:46:01;3.43;;;1.60;;
6825;SDS011;3451;52.476;13.316;2023-03-24T14:48:32;4.43;;;1.70;;
6825;SDS011;3451;52.476;13.316;2023-03-24T14:51:07;2.47;;;1.40;;
6825;SDS011;3451;52.476;13.316;2023-03-24T14:53:37;4.77;;;1.40;;
6825;SDS011;3451;52.476;13.316;2023-03-24T14:56:08;2.00;;;1.20;;
6825;SDS011;3451;52.476;13.316;2023-03-24T15:01:05;4.70;;;1.30;;
6825;SDS011;3451;52.476;13.316;2023-03-24T15:06:20;2.57;;;1.30;;
6825;SDS011;3451;52.476;13.316;2023-03-24T15:08:50;3.00;;;1.33;;
6825;SDS011;3451;52.476;13.316;2023-03-24T15:12:00;2.63;;;1.30;;
6825;SDS011;3451;52.476;13.316;2023-03-24T15:14:15;7.00;;;1.70;;
6825;SDS011;3451;52.476;13.316;2023-03-24T15:16:49;2.20;;;1.10;;
6825;SDS011;3451;52.476;13.316;2023-03-24T15:19:18;3.17;;;1.37;;
6825;SDS011;3451;52.476;13.316;2023-03-24T15:21:57;5.17;;;1.60;;
6825;SDS011;3451;52.476;13.316;2023-03-24T15:24:28;5.77;;;1.40;;
6825;SDS011;3451;52.476;13.316;2023-03-24T15:26:55;4.93;;;1.53;;
6825;SDS011;3451;52.476;13.316;2023-03-24T15:29:37;4.37;;;1.60;;
6825;SDS011;3451;52.476;13.316;2023-03-24T15:32:04;5.73;;;1.60;;
6825;SDS011;3451;52.476;13.316;2023-03-24T15:34:34;4.20;;;1.60;;
6825;SDS011;3451;52.476;13.316;2023-03-24T15:37:02;4.53;;;1.70;;
6825;SDS011;3451;52.476;13.316;2023-03-24T15:39:33;4.23;;;1.37;;
6825;SDS011;3451;52.476;13.316;2023-03-24T15:42:04;2.87;;;1.30;;
6825;SDS011;3451;52.476;13.316;2023-03-24T15:44:35;5.63;;;1.97;;
6825;SDS011;3451;52.476;13.316;2023-03-24T15:47:01;3.87;;;1.53;;
6825;SDS011;3451;52.476;13.316;2023-03-24T15:49:29;5.07;;;1.43;;
6825;SDS011;3451;52.476;13.316;2023-03-24T15:52:00;4.37;;;1.60;;
6825;SDS011;3451;52.476;13.316;2023-03-24T15:54:28;4.17;;;1.60;;
6825;SDS011;3451;52.476;13.316;2023-03-24T15:57:02;5.13;;;1.40;;
6825;SDS011;3451;52.476;13.316;2023-03-24T15:59:32;4.43;;;1.73;;
6825;SDS011;3451;52.476;13.316;2023-03-24T16:01:59;5.10;;;1.63;;
6825;SDS011;3451;52.476;13.316;2023-03-24T16:04:27;4.23;;;1.73;;
6825;SDS011;3451;52.476;13.316;2023-03-24T16:06:53;4.00;;;1.67;;
6825;SDS011;3451;52.476;13.316;2023-03-24T16:09:22;4.43;;;1.90;;
6825;SDS011;3451;52.476;13.316;2023-03-24T16:11:52;5.27;;;1.90;;
6825;SDS011;3451;52.476;13.316;2023-03-24T16:14:20;4.73;;;1.67;;
6825;SDS011;3451;52.476;13.316;2023-03-24T16:16:47;3.67;;;1.60;;
6825;SDS011;3451;52.476;13.316;2023-03-24T16:19:13;3.70;;;1.67;;
6825;SDS011;3451;52.476;13.316;2023-03-24T16:21:40;5.97;;;1.90;;
6825;SDS011;3451;52.476;13.316;2023-03-24T16:24:06;4.57;;;1.80;;
6825;SDS011;3451;52.476;13.316;2023-03-24T16:26:32;6.27;;;1.87;;
6825;SDS011;3451;52.476;13.316;2023-03-24T16:29:13;5.73;;;1.80;;
6825;SDS011;3451;52.476;13.316;2023-03-24T16:31:46;6.33;;;2.10;;
6825;SDS011;3451;52.476;13.316;2023-03-24T16:34:20;3.67;;;1.70;;
6825;SDS011;3451;52.476;13.316;2023-03-24T16:36:50;6.53;;;2.00;;
6825;SDS011;3451;52.476;13.316;2023-03-24T16:39:17;4.23;;;2.00;;
6825;SDS011;3451;52.476;13.316;2023-03-24T16:41:44;6.27;;;2.03;;
6825;SDS011;3451;52.476;13.316;2023-03-24T16:44:10;3.80;;;2.00;;
6825;SDS011;3451;52.476;13.316;2023-03-24T16:46:37;7.20;;;2.20;;
6825;SDS011;3451;52.476;13.316;2023-03-24T16:49:04;5.80;;;1.90;;
6825;SDS011;3451;52.476;13.316;2023-03-24T16:51:31;4.07;;;1.90;;
6825;SDS011;3451;52.476;13.316;2023-03-24T16:53:57;5.93;;;2.10;;
6825;SDS011;3451;52.476;13.316;2023-03-24T16:56:24;5.77;;;2.30;;
6825;SDS011;3451;52.476;13.316;2023-03-24T16:58:51;4.30;;;2.00;;
6825;SDS011;3451;52.476;13.316;2023-03-24T17:01:30;5.67;;;2.27;;
6825;SDS011;3451;52.476;13.316;2023-03-24T17:04:00;5.53;;;2.17;;